createdAt,value
2018-09-22T00:00:07.013Z,0
2018-09-22T00:00:39.066Z,0
2018-09-22T00:01:12.044Z,0
2018-09-22T00:01:44.079Z,0
2018-09-22T00:02:16.162Z,0
2018-09-22T00:02:48.195Z,0
2018-09-22T00:03:20.292Z,0
2018-09-22T00:03:52.364Z,0
2018-09-22T00:04:24.448Z,0
2018-09-22T00:04:56.519Z,0
2018-09-22T00:05:28.569Z,0
2018-09-22T00:06:00.652Z,0
2018-09-22T00:06:32.674Z,0
2018-09-22T00:07:04.726Z,0
2018-09-22T00:07:36.787Z,0
2018-09-22T00:08:08.851Z,0
2018-09-22T00:08:40.882Z,0
2018-09-22T00:09:12.960Z,0
2018-09-22T00:09:44.991Z,0
2018-09-22T00:10:17.018Z,0
2018-09-22T00:10:49.104Z,0
2018-09-22T00:11:21.197Z,0
2018-09-22T00:11:53.283Z,0
2018-09-22T00:12:25.285Z,0
2018-09-22T00:12:57.366Z,0
2018-09-22T00:13:29.397Z,0
2018-09-22T00:14:01.474Z,0
2018-09-22T00:14:33.513Z,0
2018-09-22T00:15:05.585Z,0
2018-09-22T00:15:37.662Z,0
2018-09-22T00:16:09.709Z,0
2018-09-22T00:16:41.782Z,0
2018-09-22T00:17:13.832Z,0
2018-09-22T00:17:45.839Z,0
2018-09-22T00:18:17.892Z,0
2018-09-22T00:18:49.967Z,0
2018-09-22T00:19:21.956Z,0
2018-09-22T00:19:54.192Z,0
2018-09-22T00:20:26.240Z,0
2018-09-22T00:20:58.302Z,0
2018-09-22T00:21:30.377Z,0
2018-09-22T00:22:02.432Z,0
2018-09-22T00:22:34.516Z,0
2018-09-22T00:23:06.589Z,0
2018-09-22T00:23:38.658Z,0
2018-09-22T00:24:10.733Z,0
2018-09-22T00:24:42.764Z,0
2018-09-22T00:25:14.798Z,0
2018-09-22T00:25:46.904Z,0
2018-09-22T00:26:19.069Z,0
2018-09-22T00:26:51.134Z,0
2018-09-22T00:27:23.233Z,0
2018-09-22T00:27:55.262Z,0
2018-09-22T00:28:27.331Z,0
2018-09-22T00:28:59.398Z,0
2018-09-22T00:29:31.436Z,0
2018-09-22T00:30:03.505Z,0
2018-09-22T00:30:35.575Z,0
2018-09-22T00:31:07.666Z,0
2018-09-22T00:31:39.810Z,0
2018-09-22T00:32:11.808Z,0
2018-09-22T00:32:43.845Z,0
2018-09-22T00:33:15.810Z,0
2018-09-22T00:33:47.860Z,0
2018-09-22T00:34:19.931Z,0
2018-09-22T00:34:51.991Z,0
2018-09-22T00:35:24.125Z,0
2018-09-22T00:35:56.177Z,0
2018-09-22T00:36:28.248Z,0
2018-09-22T00:37:00.416Z,0
2018-09-22T00:37:32.616Z,0
2018-09-22T00:38:04.729Z,0
2018-09-22T00:38:36.745Z,0
2018-09-22T00:39:08.779Z,0
2018-09-22T00:39:40.832Z,0
2018-09-22T00:40:12.927Z,0
2018-09-22T00:40:45.085Z,0
2018-09-22T00:41:17.128Z,0
2018-09-22T00:41:49.196Z,0
2018-09-22T00:42:21.262Z,0
2018-09-22T00:42:53.293Z,0
2018-09-22T00:43:25.371Z,0
2018-09-22T00:43:57.404Z,0
2018-09-22T00:44:29.480Z,0
2018-09-22T00:45:01.518Z,0
2018-09-22T00:45:33.531Z,0
2018-09-22T00:46:05.543Z,0
2018-09-22T00:46:37.601Z,0
2018-09-22T00:47:09.625Z,0
2018-09-22T00:47:41.672Z,0
2018-09-22T00:48:13.750Z,0
2018-09-22T00:48:45.790Z,0
2018-09-22T00:49:17.841Z,0
2018-09-22T00:49:49.883Z,0
2018-09-22T00:50:21.925Z,0
2018-09-22T00:50:54.004Z,0
2018-09-22T00:51:26.038Z,0
2018-09-22T00:51:58.105Z,0
2018-09-22T00:52:30.178Z,0
2018-09-22T00:53:02.232Z,0
2018-09-22T00:53:34.226Z,0
2018-09-22T00:54:06.229Z,0
2018-09-22T00:54:38.276Z,0
2018-09-22T00:55:10.344Z,0
2018-09-22T00:55:42.367Z,0
2018-09-22T00:56:14.416Z,0
2018-09-22T00:56:46.465Z,0
2018-09-22T00:57:18.555Z,0
2018-09-22T00:57:50.578Z,0
2018-09-22T00:58:22.629Z,0
2018-09-22T00:58:54.662Z,0
2018-09-22T00:59:26.752Z,0
2018-09-22T00:59:58.835Z,0
2018-09-22T01:00:30.912Z,0
2018-09-22T01:01:02.971Z,0
2018-09-22T01:01:35.676Z,0
2018-09-22T01:02:07.729Z,0
2018-09-22T01:02:39.748Z,0
2018-09-22T01:03:11.955Z,0
2018-09-22T01:03:44.162Z,0
2018-09-22T01:04:16.312Z,0
2018-09-22T01:04:48.412Z,0
2018-09-22T01:05:20.438Z,0
2018-09-22T01:05:52.579Z,0
2018-09-22T01:06:24.621Z,0
2018-09-22T01:06:56.685Z,0
2018-09-22T01:07:28.770Z,0
2018-09-22T01:08:00.853Z,0
2018-09-22T01:08:32.898Z,0
2018-09-22T01:09:04.933Z,0
2018-09-22T01:09:37.004Z,0
2018-09-22T01:10:09.084Z,0
2018-09-22T01:10:41.190Z,0
2018-09-22T01:11:13.813Z,0
2018-09-22T01:11:45.869Z,0
2018-09-22T01:12:17.912Z,0
2018-09-22T01:12:49.956Z,0
2018-09-22T01:13:21.961Z,0
2018-09-22T01:13:54.086Z,0
2018-09-22T01:14:26.284Z,0
2018-09-22T01:14:58.260Z,0
2018-09-22T01:15:30.448Z,0
2018-09-22T01:16:02.514Z,0
2018-09-22T01:16:34.597Z,0
2018-09-22T01:17:06.668Z,0
2018-09-22T01:17:38.736Z,0
2018-09-22T01:18:10.778Z,0
2018-09-22T01:18:42.843Z,0
2018-09-22T01:19:14.883Z,0
2018-09-22T01:19:46.936Z,0
2018-09-22T01:20:19.117Z,0
2018-09-22T01:20:51.194Z,0
2018-09-22T01:21:23.286Z,0
2018-09-22T01:21:55.337Z,0
2018-09-22T01:22:27.394Z,0
2018-09-22T01:22:59.446Z,0
2018-09-22T01:23:31.587Z,0
2018-09-22T01:24:04.516Z,0
2018-09-22T01:24:36.538Z,0
2018-09-22T01:25:08.652Z,0
2018-09-22T01:25:40.734Z,0
2018-09-22T01:26:12.798Z,0
2018-09-22T01:26:44.864Z,0
2018-09-22T01:27:16.869Z,0
2018-09-22T01:27:48.911Z,0
2018-09-22T01:28:20.974Z,0
2018-09-22T01:28:53.031Z,0
2018-09-22T01:29:25.197Z,0
2018-09-22T01:29:57.218Z,0
2018-09-22T01:30:29.297Z,0
2018-09-22T01:31:01.363Z,0
2018-09-22T01:31:33.418Z,0
2018-09-22T01:32:05.499Z,0
2018-09-22T01:32:37.546Z,0
2018-09-22T01:33:09.620Z,0
2018-09-22T01:33:41.681Z,0
2018-09-22T01:34:13.832Z,0
2018-09-22T01:34:46.006Z,0
2018-09-22T01:35:18.097Z,0
2018-09-22T01:35:50.141Z,0
2018-09-22T01:36:22.215Z,0
2018-09-22T01:36:54.206Z,0
2018-09-22T01:37:26.246Z,0
2018-09-22T01:37:58.273Z,0
2018-09-22T01:38:30.356Z,0
2018-09-22T01:39:02.395Z,0
2018-09-22T01:39:34.404Z,0
2018-09-22T01:40:06.506Z,0
2018-09-22T01:40:38.520Z,0
2018-09-22T01:41:10.656Z,0
2018-09-22T01:41:42.706Z,0
2018-09-22T01:42:14.749Z,0
2018-09-22T01:42:46.780Z,0
2018-09-22T01:43:19.503Z,0
2018-09-22T01:43:51.500Z,0
2018-09-22T01:44:23.530Z,0
2018-09-22T01:44:55.614Z,0
2018-09-22T01:45:27.690Z,0
2018-09-22T01:45:59.745Z,0
2018-09-22T01:46:31.782Z,0
2018-09-22T01:47:03.821Z,0
2018-09-22T01:47:35.877Z,0
2018-09-22T01:48:07.918Z,0
2018-09-22T01:48:39.948Z,0
2018-09-22T01:49:12.017Z,0
2018-09-22T01:49:44.083Z,0
2018-09-22T01:50:16.148Z,0
2018-09-22T01:50:48.246Z,0
2018-09-22T01:51:20.314Z,0
2018-09-22T01:51:52.361Z,0
2018-09-22T01:52:24.565Z,0
2018-09-22T01:52:56.593Z,0
2018-09-22T01:53:28.643Z,0
2018-09-22T01:54:00.659Z,0
2018-09-22T01:54:32.742Z,0
2018-09-22T01:55:04.832Z,0
2018-09-22T01:55:36.857Z,0
2018-09-22T01:56:08.904Z,0
2018-09-22T01:56:40.925Z,0
2018-09-22T01:57:13.007Z,0
2018-09-22T01:57:45.111Z,0
2018-09-22T01:58:17.151Z,0
2018-09-22T01:58:49.200Z,0
2018-09-22T01:59:21.240Z,0
2018-09-22T01:59:53.304Z,0
2018-09-22T02:00:25.356Z,0
2018-09-22T02:00:57.450Z,0
2018-09-22T02:01:29.541Z,0
2018-09-22T02:02:01.577Z,0
2018-09-22T02:02:33.726Z,0
2018-09-22T02:03:05.808Z,0
2018-09-22T02:03:37.849Z,0
2018-09-22T02:04:09.898Z,0
2018-09-22T02:04:41.956Z,0
2018-09-22T02:05:14.017Z,0
2018-09-22T02:05:46.074Z,0
2018-09-22T02:06:18.132Z,0
2018-09-22T02:06:50.223Z,0
2018-09-22T02:07:22.320Z,0
2018-09-22T02:07:54.399Z,0
2018-09-22T02:08:26.557Z,0
2018-09-22T02:08:58.643Z,0
2018-09-22T02:09:30.690Z,0
2018-09-22T02:10:02.760Z,0
2018-09-22T02:10:34.896Z,0
2018-09-22T02:11:06.897Z,0
2018-09-22T02:11:38.922Z,0
2018-09-22T02:12:11.012Z,0
2018-09-22T02:12:43.060Z,0
2018-09-22T02:13:15.142Z,0
2018-09-22T02:13:47.203Z,0
2018-09-22T02:14:19.253Z,0
2018-09-22T02:14:51.291Z,0
2018-09-22T02:15:23.409Z,0
2018-09-22T02:15:55.436Z,0
2018-09-22T02:16:27.451Z,0
2018-09-22T02:16:59.538Z,0
2018-09-22T02:17:31.529Z,0
2018-09-22T02:18:03.565Z,0
2018-09-22T02:18:35.646Z,0
2018-09-22T02:19:07.726Z,0
2018-09-22T02:19:39.769Z,0
2018-09-22T02:20:11.922Z,0
2018-09-22T02:20:44.008Z,0
2018-09-22T02:21:16.059Z,0
2018-09-22T02:21:48.163Z,0
2018-09-22T02:22:20.209Z,0
2018-09-22T02:22:52.247Z,0
2018-09-22T02:23:24.300Z,0
2018-09-22T02:23:56.375Z,0
2018-09-22T02:24:28.406Z,0
2018-09-22T02:25:00.463Z,0
2018-09-22T02:25:32.576Z,0
2018-09-22T02:26:04.750Z,0
2018-09-22T02:26:36.766Z,0
2018-09-22T02:27:08.854Z,0
2018-09-22T02:27:40.914Z,0
2018-09-22T02:28:12.967Z,0
2018-09-22T02:28:45.044Z,0
2018-09-22T02:29:17.105Z,0
2018-09-22T02:29:49.156Z,0
2018-09-22T02:30:21.237Z,0
2018-09-22T02:30:53.268Z,0
2018-09-22T02:31:25.419Z,0
2018-09-22T02:31:57.498Z,0
2018-09-22T02:32:29.558Z,0
2018-09-22T02:33:01.633Z,0
2018-09-22T02:33:33.726Z,0
2018-09-22T02:34:05.775Z,0
2018-09-22T02:34:37.834Z,0
2018-09-22T02:35:09.911Z,0
2018-09-22T02:35:41.980Z,0
2018-09-22T02:36:14.075Z,0
2018-09-22T02:36:46.889Z,0
2018-09-22T02:37:19.043Z,0
2018-09-22T02:37:51.129Z,0
2018-09-22T02:38:23.179Z,0
2018-09-22T02:38:55.225Z,0
2018-09-22T02:39:27.284Z,0
2018-09-22T02:39:59.439Z,0
2018-09-22T02:40:31.560Z,0
2018-09-22T02:41:03.615Z,0
2018-09-22T02:41:35.685Z,0
2018-09-22T02:42:07.705Z,0
2018-09-22T02:42:39.845Z,0
2018-09-22T02:43:11.887Z,0
2018-09-22T02:43:43.899Z,0
2018-09-22T02:44:15.943Z,0
2018-09-22T02:44:48.018Z,0
2018-09-22T02:45:20.123Z,0
2018-09-22T02:45:52.226Z,0
2018-09-22T02:46:24.299Z,0
2018-09-22T02:46:56.379Z,0
2018-09-22T02:47:28.427Z,0
2018-09-22T02:48:00.499Z,0
2018-09-22T02:48:32.588Z,0
2018-09-22T02:49:04.704Z,0
2018-09-22T02:49:36.772Z,0
2018-09-22T02:50:08.816Z,0
2018-09-22T02:50:40.871Z,0
2018-09-22T02:51:12.996Z,0
2018-09-22T02:51:45.164Z,0
2018-09-22T02:52:17.237Z,0
2018-09-22T02:52:49.316Z,0
2018-09-22T02:53:21.361Z,0
2018-09-22T02:53:53.405Z,0
2018-09-22T02:54:25.428Z,0
2018-09-22T02:54:57.495Z,0
2018-09-22T02:55:29.578Z,0
2018-09-22T02:56:01.611Z,0
2018-09-22T02:56:33.696Z,0
2018-09-22T02:57:05.840Z,0
2018-09-22T02:57:37.878Z,0
2018-09-22T02:58:09.958Z,0
2018-09-22T02:58:42.036Z,0
2018-09-22T02:59:14.071Z,0
2018-09-22T02:59:46.136Z,0
2018-09-22T03:00:18.194Z,0
2018-09-22T03:00:50.258Z,0
2018-09-22T03:01:22.323Z,0
2018-09-22T03:01:54.384Z,0
2018-09-22T03:02:26.399Z,0
2018-09-22T03:02:58.466Z,0
2018-09-22T03:03:30.522Z,0
2018-09-22T03:04:02.556Z,0
2018-09-22T03:04:34.623Z,0
2018-09-22T03:05:06.689Z,0
2018-09-22T03:05:38.726Z,0
2018-09-22T03:06:10.885Z,0
2018-09-22T03:06:43.043Z,0
2018-09-22T03:07:15.105Z,0
2018-09-22T03:07:47.192Z,0
2018-09-22T03:08:19.270Z,0
2018-09-22T03:08:51.393Z,0
2018-09-22T03:09:23.497Z,0
2018-09-22T03:09:55.566Z,0
2018-09-22T03:10:27.628Z,0
2018-09-22T03:10:59.730Z,0
2018-09-22T03:11:31.791Z,0
2018-09-22T03:12:03.867Z,0
2018-09-22T03:12:35.944Z,0
2018-09-22T03:13:07.958Z,0
2018-09-22T03:13:40.052Z,0
2018-09-22T03:14:12.133Z,0
2018-09-22T03:14:44.206Z,0
2018-09-22T03:15:16.325Z,0
2018-09-22T03:15:48.416Z,0
2018-09-22T03:16:20.476Z,0
2018-09-22T03:16:52.533Z,0
2018-09-22T03:17:24.582Z,0
2018-09-22T03:17:56.633Z,0
2018-09-22T03:18:28.692Z,0
2018-09-22T03:19:00.750Z,0
2018-09-22T03:19:32.882Z,0
2018-09-22T03:20:04.909Z,0
2018-09-22T03:20:36.982Z,0
2018-09-22T03:21:09.115Z,0
2018-09-22T03:21:41.177Z,0
2018-09-22T03:22:13.332Z,0
2018-09-22T03:22:45.377Z,0
2018-09-22T03:23:17.462Z,0
2018-09-22T03:23:49.509Z,0
2018-09-22T03:24:21.600Z,0
2018-09-22T03:24:53.696Z,0
2018-09-22T03:25:25.814Z,0
2018-09-22T03:25:57.904Z,0
2018-09-22T03:26:29.945Z,0
2018-09-22T03:27:01.977Z,0
2018-09-22T03:27:34.028Z,0
2018-09-22T03:28:06.122Z,0
2018-09-22T03:28:38.182Z,0
2018-09-22T03:29:10.252Z,0
2018-09-22T03:29:42.334Z,0
2018-09-22T03:30:14.413Z,0
2018-09-22T03:30:46.463Z,0
2018-09-22T03:31:18.523Z,0
2018-09-22T03:31:50.643Z,0
2018-09-22T03:32:22.750Z,0
2018-09-22T03:32:54.790Z,0
2018-09-22T03:33:26.863Z,0
2018-09-22T03:33:59.102Z,0
2018-09-22T03:34:31.177Z,0
2018-09-22T03:35:03.381Z,0
2018-09-22T03:35:35.451Z,0
2018-09-22T03:36:07.518Z,0
2018-09-22T03:36:39.596Z,0
2018-09-22T03:37:11.674Z,0
2018-09-22T03:37:43.797Z,0
2018-09-22T03:38:15.864Z,0
2018-09-22T03:38:47.956Z,0
2018-09-22T03:39:20.092Z,0
2018-09-22T03:39:52.128Z,0
2018-09-22T03:40:24.168Z,0
2018-09-22T03:40:56.210Z,0
2018-09-22T03:41:28.262Z,0
2018-09-22T03:42:00.345Z,0
2018-09-22T03:42:32.524Z,0
2018-09-22T03:43:04.581Z,0
2018-09-22T03:43:36.652Z,0
2018-09-22T03:44:08.710Z,0
2018-09-22T03:44:40.788Z,0
2018-09-22T03:45:12.859Z,0
2018-09-22T03:45:44.938Z,0
2018-09-22T03:46:16.989Z,0
2018-09-22T03:46:49.078Z,0
2018-09-22T03:47:21.138Z,0
2018-09-22T03:47:53.197Z,0
2018-09-22T03:48:25.253Z,0
2018-09-22T03:48:57.329Z,0
2018-09-22T03:49:29.472Z,0
2018-09-22T03:50:01.555Z,0
2018-09-22T03:50:33.614Z,0
2018-09-22T03:51:05.662Z,0
2018-09-22T03:51:37.685Z,0
2018-09-22T03:52:09.894Z,0
2018-09-22T03:52:41.962Z,0
2018-09-22T03:53:14.044Z,0
2018-09-22T03:53:46.223Z,0
2018-09-22T03:54:18.306Z,0
2018-09-22T03:54:50.399Z,0
2018-09-22T03:55:22.428Z,0
2018-09-22T03:55:54.509Z,0
2018-09-22T03:56:26.602Z,0
2018-09-22T03:56:58.688Z,0
2018-09-22T03:57:30.745Z,0
2018-09-22T03:58:02.835Z,0
2018-09-22T03:58:34.879Z,0
2018-09-22T03:59:06.957Z,0
2018-09-22T03:59:39.011Z,0
2018-09-22T04:00:11.051Z,0
2018-09-22T04:00:43.083Z,0
2018-09-22T04:01:15.181Z,0
2018-09-22T04:01:47.252Z,0
2018-09-22T04:02:19.356Z,0
2018-09-22T04:02:51.434Z,0
2018-09-22T04:03:23.476Z,0
2018-09-22T04:03:55.528Z,0
2018-09-22T04:04:27.595Z,0
2018-09-22T04:04:59.667Z,0
2018-09-22T04:05:31.696Z,0
2018-09-22T04:06:03.784Z,0
2018-09-22T04:06:35.895Z,0
2018-09-22T04:07:07.915Z,0
2018-09-22T04:07:40.158Z,0
2018-09-22T04:08:12.307Z,0
2018-09-22T04:08:44.389Z,0
2018-09-22T04:09:16.448Z,0
2018-09-22T04:09:48.533Z,0
2018-09-22T04:10:20.576Z,0
2018-09-22T04:10:52.659Z,0
2018-09-22T04:11:24.715Z,0
2018-09-22T04:11:56.890Z,0
2018-09-22T04:12:28.962Z,0
2018-09-22T04:13:01.017Z,0
2018-09-22T04:13:33.107Z,0
2018-09-22T04:14:05.175Z,0
2018-09-22T04:14:37.358Z,0
2018-09-22T04:15:09.484Z,0
2018-09-22T04:15:41.586Z,0
2018-09-22T04:16:13.744Z,0
2018-09-22T04:16:45.786Z,0
2018-09-22T04:17:17.836Z,0
2018-09-22T04:17:49.889Z,0
2018-09-22T04:18:21.923Z,0
2018-09-22T04:18:53.962Z,0
2018-09-22T04:19:26.018Z,0
2018-09-22T04:19:58.070Z,0
2018-09-22T04:20:30.200Z,0
2018-09-22T04:21:02.247Z,0
2018-09-22T04:21:34.308Z,0
2018-09-22T04:22:06.428Z,0
2018-09-22T04:22:38.447Z,0
2018-09-22T04:23:10.538Z,0
2018-09-22T04:23:42.614Z,0
2018-09-22T04:24:14.664Z,0
2018-09-22T04:24:46.713Z,0
2018-09-22T04:25:18.773Z,0
2018-09-22T04:25:50.853Z,0
2018-09-22T04:26:23.015Z,0
2018-09-22T04:26:55.059Z,0
2018-09-22T04:27:27.220Z,0
2018-09-22T04:27:59.407Z,0
2018-09-22T04:28:31.535Z,0
2018-09-22T04:29:03.600Z,0
2018-09-22T04:29:35.620Z,0
2018-09-22T04:30:07.694Z,0
2018-09-22T04:30:39.726Z,0
2018-09-22T04:31:11.827Z,0
2018-09-22T04:31:43.861Z,0
2018-09-22T04:32:15.942Z,0
2018-09-22T04:32:48.006Z,0
2018-09-22T04:33:20.171Z,0
2018-09-22T04:33:52.249Z,0
2018-09-22T04:34:24.284Z,0
2018-09-22T04:34:56.390Z,0
2018-09-22T04:35:28.442Z,0
2018-09-22T04:36:00.517Z,0
2018-09-22T04:36:32.563Z,0
2018-09-22T04:37:04.688Z,0
2018-09-22T04:37:36.732Z,0
2018-09-22T04:38:08.764Z,0
2018-09-22T04:38:40.792Z,0
2018-09-22T04:39:12.912Z,0
2018-09-22T04:39:44.945Z,0
2018-09-22T04:40:17.025Z,0
2018-09-22T04:40:49.115Z,0
2018-09-22T04:41:21.149Z,0
2018-09-22T04:41:53.255Z,0
2018-09-22T04:42:25.298Z,0
2018-09-22T04:42:57.399Z,0
2018-09-22T04:43:29.448Z,0
2018-09-22T04:44:01.527Z,0
2018-09-22T04:44:33.654Z,0
2018-09-22T04:45:05.734Z,0
2018-09-22T04:45:37.797Z,0
2018-09-22T04:46:09.858Z,0
2018-09-22T04:46:41.916Z,0
2018-09-22T04:47:14.051Z,0
2018-09-22T04:47:46.142Z,0
2018-09-22T04:48:18.159Z,0
2018-09-22T04:48:50.208Z,0
2018-09-22T04:49:22.323Z,0
2018-09-22T04:49:54.396Z,0
2018-09-22T04:50:26.470Z,0
2018-09-22T04:50:58.474Z,0
2018-09-22T04:51:30.566Z,0
2018-09-22T04:52:02.723Z,0
2018-09-22T04:52:34.812Z,0
2018-09-22T04:53:06.846Z,0
2018-09-22T04:53:38.941Z,0
2018-09-22T04:54:10.989Z,0
2018-09-22T04:54:43.021Z,0
2018-09-22T04:55:15.098Z,0
2018-09-22T04:55:47.146Z,0
2018-09-22T04:56:19.315Z,0
2018-09-22T04:56:51.447Z,0
2018-09-22T04:57:23.507Z,0
2018-09-22T04:57:55.577Z,0
2018-09-22T04:58:27.648Z,0
2018-09-22T04:58:59.740Z,0
2018-09-22T04:59:31.799Z,0
2018-09-22T05:00:03.839Z,0
2018-09-22T05:00:35.882Z,0
2018-09-22T05:01:07.944Z,0
2018-09-22T05:01:40.045Z,0
2018-09-22T05:02:12.109Z,0
2018-09-22T05:02:44.179Z,0
2018-09-22T05:03:16.243Z,0
2018-09-22T05:03:48.303Z,0
2018-09-22T05:04:20.336Z,0
2018-09-22T05:04:52.512Z,0
2018-09-22T05:05:24.583Z,0
2018-09-22T05:05:56.667Z,0
2018-09-22T05:06:28.757Z,0
2018-09-22T05:07:00.822Z,0
2018-09-22T05:07:32.914Z,0
2018-09-22T05:08:04.950Z,0
2018-09-22T05:08:37.014Z,0
2018-09-22T05:09:09.029Z,0
2018-09-22T05:09:41.121Z,0
2018-09-22T05:10:13.192Z,0
2018-09-22T05:10:45.242Z,0
2018-09-22T05:11:17.302Z,0
2018-09-22T05:11:49.368Z,0
2018-09-22T05:12:21.476Z,0
2018-09-22T05:12:53.590Z,0
2018-09-22T05:13:25.718Z,0
2018-09-22T05:13:57.783Z,0
2018-09-22T05:14:29.815Z,0
2018-09-22T05:15:01.878Z,0
2018-09-22T05:15:33.916Z,0
2018-09-22T05:16:06.024Z,0
2018-09-22T05:16:38.076Z,0
2018-09-22T05:17:10.251Z,5
2018-09-22T05:17:42.253Z,5
2018-09-22T05:18:14.267Z,5
2018-09-22T05:18:46.338Z,5
2018-09-22T05:19:18.428Z,5
2018-09-22T05:19:50.501Z,5
2018-09-22T05:20:22.564Z,5
2018-09-22T05:20:54.629Z,5
2018-09-22T05:21:26.725Z,5
2018-09-22T05:21:58.788Z,5
2018-09-22T05:22:30.851Z,5
2018-09-22T05:23:02.884Z,5
2018-09-22T05:23:34.938Z,5
2018-09-22T05:24:07.032Z,5
2018-09-22T05:24:39.177Z,5
2018-09-22T05:25:11.171Z,5
2018-09-22T05:25:43.263Z,5
2018-09-22T05:26:15.405Z,5
2018-09-22T05:26:47.489Z,5
2018-09-22T05:27:19.525Z,5
2018-09-22T05:27:51.537Z,10
2018-09-22T05:28:23.639Z,10
2018-09-22T05:28:55.806Z,10
2018-09-22T05:29:27.872Z,10
2018-09-22T05:29:59.999Z,10
2018-09-22T05:30:32.079Z,10
2018-09-22T05:31:04.136Z,10
2018-09-22T05:31:36.219Z,10
2018-09-22T05:32:08.286Z,10
2018-09-22T05:32:40.303Z,10
2018-09-22T05:33:12.338Z,10
2018-09-22T05:33:44.380Z,10
2018-09-22T05:34:16.391Z,10
2018-09-22T05:34:48.446Z,10
2018-09-22T05:35:20.493Z,10
2018-09-22T05:35:52.564Z,10
2018-09-22T05:36:24.670Z,10
2018-09-22T05:36:56.730Z,10
2018-09-22T05:37:28.759Z,15
2018-09-22T05:38:00.810Z,15
2018-09-22T05:38:32.857Z,15
2018-09-22T05:39:04.908Z,15
2018-09-22T05:39:36.986Z,15
2018-09-22T05:40:09.087Z,15
2018-09-22T05:40:41.141Z,15
2018-09-22T05:41:13.165Z,20
2018-09-22T05:41:45.318Z,20
2018-09-22T05:42:17.351Z,20
2018-09-22T05:42:49.432Z,20
2018-09-22T05:43:21.504Z,20
2018-09-22T05:43:53.588Z,20
2018-09-22T05:44:25.673Z,20
2018-09-22T05:44:57.685Z,20
2018-09-22T05:45:29.750Z,20
2018-09-22T05:46:02.594Z,20
2018-09-22T05:46:34.661Z,20
2018-09-22T05:47:06.700Z,20
2018-09-22T05:47:38.750Z,20
2018-09-22T05:48:10.799Z,20
2018-09-22T05:48:42.934Z,20
2018-09-22T05:49:15.118Z,25
2018-09-22T05:49:47.210Z,25
2018-09-22T05:50:19.258Z,25
2018-09-22T05:50:51.315Z,25
2018-09-22T05:51:23.384Z,25
2018-09-22T05:51:55.472Z,25
2018-09-22T05:52:27.533Z,25
2018-09-22T05:52:59.683Z,25
2018-09-22T05:53:31.719Z,25
2018-09-22T05:54:03.781Z,25
2018-09-22T05:54:35.812Z,30
2018-09-22T05:55:08.609Z,30
2018-09-22T05:55:40.681Z,30
2018-09-22T05:56:12.746Z,30
2018-09-22T05:56:44.780Z,30
2018-09-22T05:57:16.927Z,30
2018-09-22T05:57:49.084Z,30
2018-09-22T05:58:21.123Z,30
2018-09-22T05:58:53.272Z,35
2018-09-22T05:59:25.323Z,35
2018-09-22T05:59:57.376Z,40
2018-09-22T06:00:29.423Z,40
2018-09-22T06:01:01.462Z,45
2018-09-22T06:01:33.538Z,50
2018-09-22T06:02:05.584Z,55
2018-09-22T06:02:37.616Z,55
2018-09-22T06:03:09.648Z,60
2018-09-22T06:03:41.953Z,60
2018-09-22T06:04:14.076Z,60
2018-09-22T06:04:46.236Z,60
2018-09-22T06:05:18.423Z,60
2018-09-22T06:05:50.504Z,60
2018-09-22T06:06:22.531Z,60
2018-09-22T06:06:54.622Z,60
2018-09-22T06:07:26.675Z,65
2018-09-22T06:07:58.735Z,65
2018-09-22T06:08:30.792Z,65
2018-09-22T06:09:02.850Z,65
2018-09-22T06:09:34.954Z,60
2018-09-22T06:10:06.958Z,60
2018-09-22T06:10:39.062Z,65
2018-09-22T06:11:11.069Z,65
2018-09-22T06:11:43.105Z,70
2018-09-22T06:12:15.143Z,70
2018-09-22T06:12:47.222Z,70
2018-09-22T06:13:19.307Z,75
2018-09-22T06:13:51.356Z,75
2018-09-22T06:14:23.374Z,75
2018-09-22T06:14:55.450Z,80
2018-09-22T06:15:27.540Z,75
2018-09-22T06:15:59.549Z,75
2018-09-22T06:16:31.585Z,80
2018-09-22T06:17:03.663Z,80
2018-09-22T06:17:35.683Z,80
2018-09-22T06:18:07.770Z,70
2018-09-22T06:18:39.831Z,80
2018-09-22T06:19:11.953Z,80
2018-09-22T06:19:44.022Z,80
2018-09-22T06:20:16.069Z,80
2018-09-22T06:20:48.157Z,85
2018-09-22T06:21:20.173Z,80
2018-09-22T06:21:52.272Z,75
2018-09-22T06:22:24.962Z,75
2018-09-22T06:22:57.073Z,65
2018-09-22T06:23:29.193Z,85
2018-09-22T06:24:01.226Z,70
2018-09-22T06:24:33.295Z,65
2018-09-22T06:25:05.353Z,80
2018-09-22T06:25:37.406Z,80
2018-09-22T06:26:10.209Z,60
2018-09-22T06:26:42.231Z,70
2018-09-22T06:27:14.246Z,75
2018-09-22T06:27:46.311Z,70
2018-09-22T06:28:18.373Z,75
2018-09-22T06:28:50.529Z,60
2018-09-22T06:29:22.515Z,65
2018-09-22T06:29:54.577Z,75
2018-09-22T06:30:26.642Z,55
2018-09-22T06:30:58.728Z,50
2018-09-22T06:31:30.795Z,70
2018-09-22T06:32:02.844Z,65
2018-09-22T06:32:34.879Z,75
2018-09-22T06:33:06.989Z,90
2018-09-22T06:33:39.111Z,75
2018-09-22T06:34:11.216Z,55
2018-09-22T06:34:43.301Z,60
2018-09-22T06:35:15.450Z,75
2018-09-22T06:35:47.563Z,90
2018-09-22T06:36:19.557Z,55
2018-09-22T06:36:51.680Z,55
2018-09-22T06:37:24.702Z,55
2018-09-22T06:37:56.744Z,55
2018-09-22T06:38:28.816Z,60
2018-09-22T06:39:00.895Z,65
2018-09-22T06:39:32.907Z,85
2018-09-22T06:40:05.806Z,75
2018-09-22T06:40:37.834Z,65
2018-09-22T06:41:09.959Z,65
2018-09-22T06:41:42.017Z,65
2018-09-22T06:42:14.078Z,75
2018-09-22T06:42:46.062Z,60
2018-09-22T06:43:18.069Z,55
2018-09-22T06:43:50.110Z,65
2018-09-22T06:44:22.166Z,60
2018-09-22T06:44:54.247Z,55
2018-09-22T06:45:26.944Z,50
2018-09-22T06:45:58.983Z,45
2018-09-22T06:46:30.983Z,50
2018-09-22T06:47:03.049Z,50
2018-09-22T06:47:35.108Z,45
2018-09-22T06:48:07.156Z,50
2018-09-22T06:48:39.147Z,55
2018-09-22T06:49:11.197Z,55
2018-09-22T06:49:43.231Z,55
2018-09-22T06:50:15.297Z,50
2018-09-22T06:50:47.340Z,55
2018-09-22T06:51:19.385Z,55
2018-09-22T06:51:51.455Z,65
2018-09-22T06:52:23.508Z,70
2018-09-22T06:52:55.546Z,60
2018-09-22T06:53:27.580Z,60
2018-09-22T06:53:59.649Z,100
2018-09-22T06:54:31.718Z,65
2018-09-22T06:55:03.751Z,65
2018-09-22T06:55:35.805Z,95
2018-09-22T06:56:07.867Z,95
2018-09-22T06:56:39.959Z,110
2018-09-22T06:57:12.006Z,100
2018-09-22T06:57:44.057Z,95
2018-09-22T06:58:16.111Z,110
2018-09-22T06:58:48.188Z,110
2018-09-22T06:59:20.327Z,125
2018-09-22T06:59:52.943Z,125
2018-09-22T07:00:25.029Z,125
2018-09-22T07:00:57.065Z,120
2018-09-22T07:01:29.146Z,110
2018-09-22T07:02:01.232Z,120
2018-09-22T07:02:33.254Z,120
2018-09-22T07:03:05.372Z,105
2018-09-22T07:03:37.475Z,125
2018-09-22T07:04:09.542Z,115
2018-09-22T07:04:41.585Z,115
2018-09-22T07:05:13.570Z,120
2018-09-22T07:05:45.621Z,120
2018-09-22T07:06:17.765Z,105
2018-09-22T07:06:49.753Z,115
2018-09-22T07:07:21.780Z,105
2018-09-22T07:07:53.818Z,80
2018-09-22T07:08:25.880Z,85
2018-09-22T07:08:57.935Z,80
2018-09-22T07:09:29.948Z,80
2018-09-22T07:10:01.993Z,85
2018-09-22T07:10:34.013Z,85
2018-09-22T07:11:06.065Z,85
2018-09-22T07:11:38.241Z,70
2018-09-22T07:12:10.322Z,70
2018-09-22T07:12:42.355Z,70
2018-09-22T07:13:14.411Z,70
2018-09-22T07:13:46.522Z,65
2018-09-22T07:14:18.583Z,65
2018-09-22T07:14:50.604Z,70
2018-09-22T07:15:22.653Z,65
2018-09-22T07:15:54.708Z,70
2018-09-22T07:16:26.770Z,70
2018-09-22T07:16:58.905Z,70
2018-09-22T07:17:30.940Z,70
2018-09-22T07:18:03.004Z,70
2018-09-22T07:18:35.068Z,70
2018-09-22T07:19:07.136Z,70
2018-09-22T07:19:39.638Z,70
2018-09-22T07:20:11.646Z,70
2018-09-22T07:20:43.744Z,70
2018-09-22T07:21:15.832Z,70
2018-09-22T07:21:47.960Z,70
2018-09-22T07:22:20.029Z,70
2018-09-22T07:22:52.030Z,70
2018-09-22T07:23:24.077Z,70
2018-09-22T07:23:56.139Z,70
2018-09-22T07:24:28.197Z,70
2018-09-22T07:25:00.204Z,70
2018-09-22T07:25:32.256Z,70
2018-09-22T07:26:04.275Z,70
2018-09-22T07:26:36.319Z,70
2018-09-22T07:27:08.409Z,70
2018-09-22T07:27:40.450Z,75
2018-09-22T07:28:12.520Z,75
2018-09-22T07:28:44.702Z,75
2018-09-22T07:29:16.761Z,75
2018-09-22T07:29:48.853Z,75
2018-09-22T07:30:20.928Z,75
2018-09-22T07:30:53.022Z,70
2018-09-22T07:31:25.025Z,70
2018-09-22T07:31:57.144Z,70
2018-09-22T07:32:29.246Z,70
2018-09-22T07:33:01.329Z,70
2018-09-22T07:33:33.583Z,70
2018-09-22T07:34:05.642Z,75
2018-09-22T07:34:37.649Z,75
2018-09-22T07:35:09.679Z,75
2018-09-22T07:35:41.734Z,90
2018-09-22T07:36:13.766Z,100
2018-09-22T07:36:45.826Z,100
2018-09-22T07:37:17.862Z,100
2018-09-22T07:37:49.896Z,145
2018-09-22T07:38:22.022Z,120
2018-09-22T07:38:54.026Z,90
2018-09-22T07:39:26.105Z,90
2018-09-22T07:39:58.224Z,95
2018-09-22T07:40:30.215Z,120
2018-09-22T07:41:02.249Z,125
2018-09-22T07:41:34.301Z,110
2018-09-22T07:42:06.423Z,105
2018-09-22T07:42:38.485Z,90
2018-09-22T07:43:10.519Z,95
2018-09-22T07:43:42.596Z,90
2018-09-22T07:44:14.644Z,90
2018-09-22T07:44:46.690Z,90
2018-09-22T07:45:18.820Z,90
2018-09-22T07:45:51.439Z,95
2018-09-22T07:46:23.439Z,90
2018-09-22T07:46:55.491Z,90
2018-09-22T07:47:28.339Z,90
2018-09-22T07:48:00.395Z,90
2018-09-22T07:48:32.412Z,90